Time;durP1;ratioP1;P1;durP2;ratioP2;P2;SDS_P1;SDS_P2;PMS_P1;PMS_P2;Temp;Humidity;BMP_temperature;BMP_pressure;BME280_temperature;BME280_humidity;BME280_pressure;Samples;Min_cycle;Max_cycle;Signal;HPM_P1;HPM_P2
2022/04/03 00:00:34;;;;;;;10.85;4.68;;;;;;;;;;5067160;28;20474;-61
2022/04/03 00:03:04;;;;;;;10.63;4.93;;;;;;;;;;5067410;28;20059;-61
2022/04/03 00:05:35;;;;;;;11.15;4.20;;;;;;;;;;5066425;28;20056;-61
2022/04/03 00:08:01;;;;;;;11.70;4.88;;;;;;;;;;5067413;28;20049;-61
2022/04/03 00:10:27;;;;;;;13.48;5.72;;;;;;;;;;5066912;28;20052;-61
2022/04/03 00:12:53;;;;;;;16.05;6.78;;;;;;;;;;5072398;28;20592;-61
2022/04/03 00:15:20;;;;;;;13.30;6.07;;;;;;;;;;5087027;28;20061;-61
2022/04/03 00:17:46;;;;;;;19.77;7.68;;;;;;;;;;5085222;28;20059;-61
2022/04/03 00:20:13;;;;;;;22.33;9.27;;;;;;;;;;5087129;28;20592;-61
2022/04/03 00:22:40;;;;;;;26.92;11.68;;;;;;;;;;5086886;28;20592;-61
2022/04/03 00:25:06;;;;;;;39.83;14.85;;;;;;;;;;5087081;28;20151;-61
2022/04/03 00:27:33;;;;;;;51.17;18.42;;;;;;;;;;5086727;28;20047;-61
2022/04/03 00:29:59;;;;;;;59.28;23.08;;;;;;;;;;5086717;28;20517;-61
2022/04/03 00:32:25;;;;;;;56.67;27.02;;;;;;;;;;5087320;28;20597;-61
2022/04/03 00:34:52;;;;;;;56.97;25.73;;;;;;;;;;5085874;28;20056;-61
2022/04/03 00:37:18;;;;;;;54.25;24.98;;;;;;;;;;5087259;28;20087;-61
2022/04/03 00:39:44;;;;;;;54.15;26.27;;;;;;;;;;5086953;28;20147;-61
2022/04/03 00:42:11;;;;;;;66.32;29.73;;;;;;;;;;5086736;28;20065;-61
2022/04/03 00:44:37;;;;;;;73.32;34.03;;;;;;;;;;5087209;28;20084;-60
2022/04/03 00:47:04;;;;;;;78.45;37.47;;;;;;;;;;5086643;28;20506;-61
2022/04/03 00:49:31;;;;;;;98.72;43.95;;;;;;;;;;5086206;28;20930;-61
2022/04/03 00:51:57;;;;;;;90.32;39.40;;;;;;;;;;5072483;28;20102;-61
2022/04/03 00:54:24;;;;;;;96.45;40.80;;;;;;;;;;5066772;28;20059;-61
2022/04/03 00:56:51;;;;;;;77.20;36.83;;;;;;;;;;5066452;28;20171;-61
2022/04/03 00:59:17;;;;;;;84.10;37.40;;;;;;;;;;5086449;28;20148;-61
2022/04/03 01:01:44;;;;;;;87.90;36.47;;;;;;;;;;5086401;28;20079;-61
2022/04/03 01:04:11;;;;;;;75.32;33.58;;;;;;;;;;5086740;28;20056;-61
2022/04/03 01:06:37;;;;;;;72.07;32.10;;;;;;;;;;5086527;28;20135;-63
2022/04/03 01:09:04;;;;;;;78.65;33.22;;;;;;;;;;5070764;28;20144;-61
2022/04/03 01:11:31;;;;;;;70.25;29.55;;;;;;;;;;5066349;28;20181;-61
2022/04/03 01:13:57;;;;;;;60.72;25.40;;;;;;;;;;5080053;28;20139;-61
2022/04/03 01:16:24;;;;;;;59.88;25.55;;;;;;;;;;5086721;28;20616;-61
2022/04/03 01:18:50;;;;;;;48.83;21.55;;;;;;;;;;5089604;28;20052;-61
2022/04/03 01:21:17;;;;;;;45.40;19.08;;;;;;;;;;5089656;28;20143;-61
2022/04/03 01:23:44;;;;;;;40.60;16.67;;;;;;;;;;5089496;28;20525;-61
2022/04/03 01:26:10;;;;;;;31.05;12.55;;;;;;;;;;5089185;28;20053;-60
2022/04/03 01:28:37;;;;;;;26.92;10.20;;;;;;;;;;5090121;28;20507;-61
2022/04/03 01:31:03;;;;;;;22.02;9.38;;;;;;;;;;5089544;28;20123;-61
2022/04/03 01:33:30;;;;;;;25.40;10.20;;;;;;;;;;5089629;28;20507;-61
2022/04/03 01:35:56;;;;;;;26.98;10.73;;;;;;;;;;5089490;28;20155;-61
2022/04/03 01:38:22;;;;;;;26.30;10.82;;;;;;;;;;5090065;28;20165;-61
2022/04/03 01:40:49;;;;;;;23.52;9.43;;;;;;;;;;5089801;28;20181;-61
2022/04/03 01:43:15;;;;;;;27.35;9.98;;;;;;;;;;5083595;28;20048;-61
2022/04/03 01:45:41;;;;;;;22.77;9.90;;;;;;;;;;5069551;28;20139;-61
2022/04/03 01:48:08;;;;;;;16.08;6.88;;;;;;;;;;5069137;28;20503;-61
2022/04/03 01:50:35;;;;;;;19.48;8.45;;;;;;;;;;5068768;28;20554;-61
2022/04/03 01:53:02;;;;;;;20.27;8.18;;;;;;;;;;5069639;28;20064;-61
2022/04/03 01:55:28;;;;;;;17.38;6.72;;;;;;;;;;5067850;28;20135;-61
2022/04/03 01:57:55;;;;;;;16.58;6.32;;;;;;;;;;5068882;28;20079;-61
2022/04/03 02:00:21;;;;;;;12.25;5.80;;;;;;;;;;5069721;28;20057;-61
2022/04/03 02:02:50;;;;;;;15.80;6.20;;;;;;;;;;5069512;28;20084;-61
2022/04/03 02:05:17;;;;;;;;;;;;;;;;;;5069592;28;20141;-61
2022/04/03 02:07:44;;;;;;;16.92;6.30;;;;;;;;;;5068085;28;45158;-61
2022/04/03 02:10:12;;;;;;;18.55;6.90;;;;;;;;;;5068932;28;20089;-61
2022/04/03 02:12:39;;;;;;;18.83;7.75;;;;;;;;;;5076321;28;20064;-61
2022/04/03 02:15:06;;;;;;;17.85;7.82;;;;;;;;;;5088354;28;20954;-61
2022/04/03 02:17:32;;;;;;;22.50;9.38;;;;;;;;;;5087759;28;20437;-61
2022/04/03 02:19:59;;;;;;;21.10;8.98;;;;;;;;;;5088724;28;20459;-60
2022/04/03 02:22:25;;;;;;;18.65;8.45;;;;;;;;;;5088652;28;20063;-60
2022/04/03 02:24:51;;;;;;;22.20;8.57;;;;;;;;;;5088915;28;20057;-60
2022/04/03 02:27:18;;;;;;;20.20;8.15;;;;;;;;;;5089051;28;20072;-60
2022/04/03 02:29:44;;;;;;;20.30;8.40;;;;;;;;;;5087893;28;20147;-61
2022/04/03 02:32:10;;;;;;;17.55;8.05;;;;;;;;;;5088699;28;20076;-61
2022/04/03 02:34:37;;;;;;;15.43;7.55;;;;;;;;;;5088425;28;20144;-61
2022/04/03 02:37:09;;;;;;;13.07;5.75;;;;;;;;;;5088015;28;20458;-61
2022/04/03 02:39:35;;;;;;;13.25;5.57;;;;;;;;;;5088443;28;20049;-60
2022/04/03 02:42:04;;;;;;;14.40;6.05;;;;;;;;;;5088793;28;20080;-60
2022/04/03 02:44:31;;;;;;;;;;;;;;;;;;5073690;28;20139;-61
2022/04/03 02:46:57;;;;;;;14.90;4.65;;;;;;;;;;5067340;28;45822;-61
2022/04/03 02:49:23;;;;;;;11.57;5.00;;;;;;;;;;5068399;28;20889;-61
2022/04/03 02:51:50;;;;;;;11.73;4.47;;;;;;;;;;5068860;28;20131;-61
2022/04/03 02:54:16;;;;;;;11.85;4.32;;;;;;;;;;5068032;28;20045;-61
2022/04/03 02:56:43;;;;;;;11.45;4.78;;;;;;;;;;5068463;28;20119;-61
2022/04/03 02:59:09;;;;;;;11.43;4.22;;;;;;;;;;5067680;28;20122;-61
2022/04/03 03:01:35;;;;;;;11.50;4.40;;;;;;;;;;5068424;28;20075;-61
2022/04/03 03:04:02;;;;;;;10.15;3.97;;;;;;;;;;5067551;28;20057;-62
2022/04/03 03:06:28;;;;;;;9.95;3.75;;;;;;;;;;5068544;28;20240;-61
2022/04/03 03:08:54;;;;;;;10.27;4.53;;;;;;;;;;5067530;28;20131;-62
2022/04/03 03:11:21;;;;;;;11.48;4.32;;;;;;;;;;5068170;28;20144;-61
2022/04/03 03:13:47;;;;;;;7.57;3.17;;;;;;;;;;5068062;28;20099;-62
2022/04/03 03:16:14;;;;;;;8.48;3.50;;;;;;;;;;5083022;28;20936;-61
2022/04/03 03:18:40;;;;;;;8.80;3.00;;;;;;;;;;5088789;28;20052;-61
2022/04/03 03:21:06;;;;;;;7.03;3.22;;;;;;;;;;5088010;28;20048;-61
2022/04/03 03:23:33;;;;;;;7.88;2.92;;;;;;;;;;5086926;28;20143;-61
2022/04/03 03:25:59;;;;;;;10.77;2.60;;;;;;;;;;5088082;28;20056;-61
2022/04/03 03:28:26;;;;;;;10.35;2.75;;;;;;;;;;5088596;28;20052;-61
2022/04/03 03:30:52;;;;;;;5.82;2.65;;;;;;;;;;5088568;28;20152;-61
2022/04/03 03:33:18;;;;;;;8.27;2.72;;;;;;;;;;5088538;28;20053;-61
2022/04/03 03:35:45;;;;;;;6.43;2.25;;;;;;;;;;5088219;28;20084;-61
2022/04/03 03:38:11;;;;;;;5.75;2.00;;;;;;;;;;5088377;28;20127;-61
2022/04/03 03:40:39;;;;;;;7.93;2.22;;;;;;;;;;5086153;28;20048;-61
2022/04/03 03:43:05;;;;;;;4.75;1.98;;;;;;;;;;5083898;28;20144;-61
2022/04/03 03:45:32;;;;;;;7.97;2.33;;;;;;;;;;5067887;28;20055;-61
2022/04/03 03:47:58;;;;;;;6.30;2.00;;;;;;;;;;5067062;28;20152;-61
2022/04/03 03:50:25;;;;;;;5.65;1.90;;;;;;;;;;5067241;28;20606;-61
2022/04/03 03:52:51;;;;;;;6.80;2.20;;;;;;;;;;5068390;28;20083;-61
2022/04/03 03:55:17;;;;;;;7.00;2.25;;;;;;;;;;5067826;28;20147;-61
2022/04/03 03:57:44;;;;;;;7.07;2.08;;;;;;;;;;5072097;28;20057;-61
2022/04/03 04:00:11;;;;;;;4.43;1.92;;;;;;;;;;5087701;28;20068;-61
2022/04/03 04:02:38;;;;;;;5.43;1.80;;;;;;;;;;5087452;28;20156;-61
2022/04/03 04:05:05;;;;;;;11.38;2.40;;;;;;;;;;5086998;28;20048;-61
2022/04/03 04:07:38;;;;;;;4.25;1.92;;;;;;;;;;5087112;28;20049;-62
2022/04/03 04:10:05;;;;;;;9.98;2.20;;;;;;;;;;5086934;28;20167;-61
2022/04/03 04:12:31;;;;;;;6.13;2.35;;;;;;;;;;5087648;28;20128;-61
2022/04/03 04:14:58;;;;;;;5.15;2.20;;;;;;;;;;5085930;28;20548;-61
2022/04/03 04:17:24;;;;;;;6.35;2.65;;;;;;;;;;5086821;28;20109;-61
2022/04/03 04:19:51;;;;;;;6.18;2.83;;;;;;;;;;5087504;28;20151;-61
2022/04/03 04:22:17;;;;;;;7.20;2.70;;;;;;;;;;5086727;28;20140;-61
2022/04/03 04:24:44;;;;;;;7.00;2.88;;;;;;;;;;5086630;28;20077;-61
2022/04/03 04:27:10;;;;;;;6.20;2.72;;;;;;;;;;5086886;28;20056;-61
2022/04/03 04:29:37;;;;;;;6.13;2.50;;;;;;;;;;5087374;28;20569;-61
2022/04/03 04:32:03;;;;;;;8.63;2.80;;;;;;;;;;5086113;28;20400;-61
2022/04/03 04:34:30;;;;;;;6.82;2.97;;;;;;;;;;5086964;28;20062;-61
2022/04/03 04:36:56;;;;;;;6.72;2.65;;;;;;;;;;5086657;28;20082;-61
2022/04/03 04:39:22;;;;;;;11.88;3.75;;;;;;;;;;5087613;28;20135;-61
2022/04/03 04:41:49;;;;;;;7.60;3.65;;;;;;;;;;5086448;28;20060;-61
2022/04/03 04:44:15;;;;;;;9.68;4.20;;;;;;;;;;5072873;28;20135;-61
2022/04/03 04:46:41;;;;;;;8.15;3.20;;;;;;;;;;5066884;28;20064;-61
2022/04/03 04:49:08;;;;;;;6.88;3.40;;;;;;;;;;5066531;28;20057;-61
2022/04/03 04:51:34;;;;;;;7.90;3.58;;;;;;;;;;5067662;28;20139;-61
2022/04/03 04:54:00;;;;;;;8.98;3.95;;;;;;;;;;5070655;28;20155;-61
2022/04/03 04:56:27;;;;;;;7.70;3.72;;;;;;;;;;5069737;28;20199;-61
2022/04/03 04:58:53;;;;;;;9.23;3.72;;;;;;;;;;5070323;28;20057;-62
2022/04/03 05:01:19;;;;;;;8.75;4.10;;;;;;;;;;5069858;28;20061;-61
2022/04/03 05:03:46;;;;;;;7.93;4.03;;;;;;;;;;5069714;28;20049;-61
2022/04/03 05:06:15;;;;;;;8.43;3.97;;;;;;;;;;5071041;28;20068;-61
2022/04/03 05:08:42;;;;;;;11.23;4.20;;;;;;;;;;5070283;28;20144;-61
2022/04/03 05:11:09;;;;;;;8.32;4.10;;;;;;;;;;5069067;28;20152;-61
2022/04/03 05:13:35;;;;;;;9.32;3.97;;;;;;;;;;5070279;28;20136;-61
2022/04/03 05:16:01;;;;;;;11.52;4.68;;;;;;;;;;5087293;28;20068;-61
2022/04/03 05:18:28;;;;;;;9.40;4.60;;;;;;;;;;5090093;28;20049;-61
2022/04/03 05:20:54;;;;;;;9.25;4.50;;;;;;;;;;5090011;28;20143;-61
2022/04/03 05:23:21;;;;;;;7.88;4.28;;;;;;;;;;5088944;28;20056;-61
2022/04/03 05:25:47;;;;;;;11.25;5.15;;;;;;;;;;5089914;28;20505;-61
2022/04/03 05:28:13;;;;;;;9.18;4.75;;;;;;;;;;5089598;28;20052;-61
2022/04/03 05:30:40;;;;;;;10.27;4.63;;;;;;;;;;5090172;28;20542;-61
2022/04/03 05:33:07;;;;;;;9.90;5.35;;;;;;;;;;5089150;28;20054;-61
2022/04/03 05:35:33;;;;;;;11.60;4.88;;;;;;;;;;5089624;28;20485;-61
2022/04/03 05:37:59;;;;;;;10.65;5.60;;;;;;;;;;5089425;28;20621;-61
2022/04/03 05:40:26;;;;;;;10.13;5.32;;;;;;;;;;5089103;28;20102;-64
2022/04/03 05:42:53;;;;;;;9.88;5.47;;;;;;;;;;5087643;28;20147;-61
2022/04/03 05:45:19;;;;;;;12.20;6.45;;;;;;;;;;5089806;28;20507;-62
2022/04/03 05:47:45;;;;;;;12.70;6.50;;;;;;;;;;5089825;28;20063;-61
2022/04/03 05:50:12;;;;;;;12.23;6.43;;;;;;;;;;5089456;28;20083;-61
2022/04/03 05:52:46;;;;;;;13.30;6.90;;;;;;;;;;5088717;28;20414;-61
2022/04/03 05:55:12;;;;;;;13.80;7.25;;;;;;;;;;5089178;28;20052;-61
2022/04/03 05:57:38;;;;;;;12.60;7.20;;;;;;;;;;5088557;28;20143;-61
2022/04/03 06:00:06;;;;;;;14.55;7.05;;;;;;;;;;5088825;28;20513;-61
2022/04/03 06:02:48;;;;;;;13.70;7.57;;;;;;;;;;5089193;28;20967;-61
2022/04/03 06:05:15;;;;;;;13.27;7.35;;;;;;;;;;5088982;28;20230;-61
2022/04/03 06:07:41;;;;;;;11.93;7.05;;;;;;;;;;5089267;28;20056;-61
2022/04/03 06:10:08;;;;;;;13.90;7.10;;;;;;;;;;5089177;28;20554;-61
2022/04/03 06:12:34;;;;;;;15.27;8.00;;;;;;;;;;5089114;28;20055;-61
2022/04/03 06:15:01;;;;;;;15.10;6.88;;;;;;;;;;5078196;28;20147;-61
2022/04/03 06:17:27;;;;;;;17.30;8.95;;;;;;;;;;5069237;28;20605;-62
2022/04/03 06:19:53;;;;;;;15.30;8.07;;;;;;;;;;5068418;28;20057;-61
2022/04/03 06:22:20;;;;;;;14.77;8.65;;;;;;;;;;5068618;28;20076;-61
2022/04/03 06:24:46;;;;;;;15.15;7.78;;;;;;;;;;5068185;28;20519;-61
2022/04/03 06:27:13;;;;;;;14.63;7.72;;;;;;;;;;5069121;28;20142;-61
2022/04/03 06:29:39;;;;;;;15.43;8.43;;;;;;;;;;5067691;28;20494;-61
2022/04/03 06:32:06;;;;;;;15.13;8.45;;;;;;;;;;5084125;28;20055;-61
2022/04/03 06:34:32;;;;;;;19.63;8.20;;;;;;;;;;5088565;28;20052;-61
2022/04/03 06:36:58;;;;;;;16.90;7.95;;;;;;;;;;5087913;28;20136;-61
2022/04/03 06:39:25;;;;;;;14.07;7.45;;;;;;;;;;5089018;28;20139;-61
2022/04/03 06:41:51;;;;;;;16.42;7.43;;;;;;;;;;5088923;28;20151;-61
2022/04/03 06:44:17;;;;;;;15.18;7.28;;;;;;;;;;5087597;28;20058;-61
2022/04/03 06:46:44;;;;;;;13.77;7.35;;;;;;;;;;5088527;28;20512;-61
2022/04/03 06:49:10;;;;;;;12.48;6.93;;;;;;;;;;5088127;28;20084;-61
2022/04/03 06:51:36;;;;;;;17.55;6.95;;;;;;;;;;5088310;28;20049;-61
2022/04/03 06:54:03;;;;;;;11.60;6.63;;;;;;;;;;5087793;28;20584;-61
2022/04/03 06:56:29;;;;;;;13.20;6.38;;;;;;;;;;5088364;28;20072;-61
2022/04/03 06:58:55;;;;;;;13.25;6.55;;;;;;;;;;5087740;28;20044;-61
2022/04/03 07:01:22;;;;;;;12.02;6.25;;;;;;;;;;5088331;28;20514;-62
2022/04/03 07:03:50;;;;;;;12.63;6.97;;;;;;;;;;5088221;28;20053;-61
2022/04/03 07:06:16;;;;;;;10.98;5.95;;;;;;;;;;5071199;28;20479;-61
2022/04/03 07:08:44;;;;;;;10.80;5.60;;;;;;;;;;5068220;28;20111;-61
2022/04/03 07:11:10;;;;;;;12.57;5.95;;;;;;;;;;5068282;28;20511;-62
2022/04/03 07:13:36;;;;;;;12.75;6.68;;;;;;;;;;5071267;28;20138;-65
2022/04/03 07:16:03;;;;;;;14.35;6.57;;;;;;;;;;5087533;28;20143;-61
2022/04/03 07:18:31;;;;;;;10.07;5.88;;;;;;;;;;5087746;28;20052;-61
2022/04/03 07:20:57;;;;;;;13.15;6.25;;;;;;;;;;5088183;28;20159;-61
2022/04/03 07:23:25;;;;;;;10.23;5.65;;;;;;;;;;5087491;28;20053;-61
2022/04/03 07:25:51;;;;;;;8.98;5.13;;;;;;;;;;5088161;28;20126;-61
2022/04/03 07:28:18;;;;;;;10.02;5.50;;;;;;;;;;5087400;28;20067;-61
2022/04/03 07:30:45;;;;;;;10.27;5.60;;;;;;;;;;5086902;28;20048;-61
2022/04/03 07:33:11;;;;;;;12.63;5.53;;;;;;;;;;5088010;28;20110;-61
2022/04/03 07:35:37;;;;;;;9.48;5.53;;;;;;;;;;5087308;28;20889;-62
2022/04/03 07:38:04;;;;;;;11.60;5.20;;;;;;;;;;5087492;28;20418;-61
2022/04/03 07:40:30;;;;;;;11.35;5.18;;;;;;;;;;5087076;28;20471;-61
2022/04/03 07:43:17;;;;;;;10.55;5.15;;;;;;;;;;5087209;28;20060;-61
2022/04/03 07:45:44;;;;;;;9.55;4.80;;;;;;;;;;5087634;28;20143;-61
2022/04/03 07:48:10;;;;;;;11.77;6.95;;;;;;;;;;5087555;28;20064;-61
2022/04/03 07:50:37;;;;;;;19.23;8.88;;;;;;;;;;5087746;28;20071;-61
2022/04/03 07:53:04;;;;;;;11.48;6.70;;;;;;;;;;5087019;28;20053;-61
2022/04/03 07:55:30;;;;;;;19.25;6.95;;;;;;;;;;5086388;28;20086;-61
2022/04/03 07:57:57;;;;;;;22.05;7.28;;;;;;;;;;5087274;28;20052;-61
2022/04/03 08:00:23;;;;;;;17.25;5.43;;;;;;;;;;5087579;28;20143;-61
2022/04/03 08:02:50;;;;;;;8.90;3.08;;;;;;;;;;5087035;28;20054;-61
2022/04/03 08:05:16;;;;;;;6.28;2.35;;;;;;;;;;5087255;28;20528;-61
2022/04/03 08:07:48;;;;;;;5.32;2.55;;;;;;;;;;5087087;28;20080;-61
2022/04/03 08:10:15;;;;;;;6.03;2.65;;;;;;;;;;5086735;28;20586;-61
2022/04/03 08:12:42;;;;;;;8.25;3.08;;;;;;;;;;5083281;28;20598;-61
2022/04/03 08:15:10;;;;;;;7.40;3.15;;;;;;;;;;5083271;28;20497;-61
2022/04/03 08:17:40;;;;;;;7.28;3.10;;;;;;;;;;5086673;28;20049;-61
2022/04/03 08:20:08;;;;;;;11.40;3.78;;;;;;;;;;5087554;28;20140;-61
2022/04/03 08:22:36;;;;;;;13.90;5.18;;;;;;;;;;5087124;28;20059;-61
2022/04/03 08:25:03;;;;;;;8.00;3.92;;;;;;;;;;5086751;28;20045;-61
2022/04/03 08:27:43;;;;;;;6.18;2.65;;;;;;;;;;5086063;28;20056;-60
2022/04/03 08:30:10;;;;;;;5.82;1.83;;;;;;;;;;5085885;28;20071;-61
2022/04/03 08:32:37;;;;;;;5.40;1.58;;;;;;;;;;5087478;28;20490;-61
2022/04/03 08:35:03;;;;;;;3.88;1.50;;;;;;;;;;5085839;28;20146;-61
2022/04/03 08:37:29;;;;;;;6.00;1.60;;;;;;;;;;5087157;28;20080;-61
2022/04/03 08:39:56;;;;;;;6.60;1.88;;;;;;;;;;5086808;28;20049;-61
2022/04/03 08:42:22;;;;;;;5.97;2.17;;;;;;;;;;5086417;28;20926;-61
2022/04/03 08:44:48;;;;;;;8.20;2.30;;;;;;;;;;5086605;28;20136;-61
2022/04/03 08:47:16;;;;;;;5.32;1.70;;;;;;;;;;5078151;28;20745;-61
2022/04/03 08:49:44;;;;;;;5.95;1.42;;;;;;;;;;5065670;28;20566;-61
2022/04/03 08:52:15;;;;;;;4.13;1.30;;;;;;;;;;5066366;28;20087;-61
2022/04/03 08:54:41;;;;;;;3.15;1.10;;;;;;;;;;5066546;28;20077;-61
2022/04/03 08:57:08;;;;;;;4.72;1.48;;;;;;;;;;5066451;28;20131;-59
2022/04/03 08:59:36;;;;;;;2.38;0.80;;;;;;;;;;5067016;28;20142;-61
2022/04/03 09:02:03;;;;;;;;;;;;;;;;;;5066487;28;20045;-61
2022/04/03 09:04:31;;;;;;;6.57;1.30;;;;;;;;;;5065858;28;46349;-61
2022/04/03 09:06:57;;;;;;;;;;;;;;;;;;5066864;28;20061;-61
2022/04/03 09:09:25;;;;;;;5.90;1.52;;;;;;;;;;5065476;28;44603;-61
2022/04/03 09:12:09;;;;;;;2.95;1.20;;;;;;;;;;5066410;28;20136;-61
2022/04/03 09:14:44;;;;;;;3.58;1.58;;;;;;;;;;5077092;28;20143;-61
2022/04/03 09:17:10;;;;;;;5.32;1.30;;;;;;;;;;5086377;28;20147;-61
2022/04/03 09:19:36;;;;;;;4.75;1.60;;;;;;;;;;5086302;28;20063;-61
2022/04/03 09:22:03;;;;;;;3.97;1.40;;;;;;;;;;5085557;28;20155;-61
2022/04/03 09:24:29;;;;;;;3.92;1.30;;;;;;;;;;5086582;28;20141;-62
2022/04/03 09:26:59;;;;;;;2.03;0.93;;;;;;;;;;5085892;28;20099;-61
2022/04/03 09:29:26;;;;;;;9.20;1.40;;;;;;;;;;5086632;28;20140;-62
2022/04/03 09:31:59;;;;;;;6.30;1.30;;;;;;;;;;5086506;28;20903;-61
2022/04/03 09:34:27;;;;;;;4.20;1.25;;;;;;;;;;5086351;28;20057;-61
2022/04/03 09:36:54;;;;;;;5.38;1.63;;;;;;;;;;5086277;28;20052;-61
2022/04/03 09:39:24;;;;;;;6.20;1.23;;;;;;;;;;5087713;28;20586;-61
2022/04/03 09:41:58;;;;;;;4.22;1.70;;;;;;;;;;5090171;28;20096;-61
2022/04/03 09:44:44;;;;;;;5.55;1.63;;;;;;;;;;5089615;28;20477;-61
2022/04/03 09:47:21;;;;;;;3.92;1.55;;;;;;;;;;5069094;28;20057;-61
2022/04/03 09:49:52;;;;;;;6.88;1.70;;;;;;;;;;5069912;28;20553;-60
2022/04/03 09:52:37;;;;;;;4.05;1.73;;;;;;;;;;5069095;28;20525;-66
2022/04/03 09:55:07;;;;;;;8.45;2.40;;;;;;;;;;5070688;28;20592;-62
2022/04/03 09:57:37;;;;;;;4.75;1.55;;;;;;;;;;5074317;28;20049;-61
2022/04/03 10:00:05;;;;;;;5.32;1.58;;;;;;;;;;5089355;28;20056;-61
2022/04/03 10:02:32;;;;;;;5.27;1.80;;;;;;;;;;5090721;28;20055;-61
2022/04/03 10:04:59;;;;;;;6.95;1.50;;;;;;;;;;5089623;28;20049;-61
2022/04/03 10:07:26;;;;;;;4.75;1.40;;;;;;;;;;5090535;28;20052;-61
2022/04/03 10:09:53;;;;;;;4.10;1.95;;;;;;;;;;5089762;28;20049;-61
2022/04/03 10:12:21;;;;;;;5.88;1.70;;;;;;;;;;5080733;28;20140;-61
2022/04/03 10:14:51;;;;;;;3.28;1.60;;;;;;;;;;5068282;28;20405;-61
2022/04/03 10:17:18;;;;;;;4.40;1.73;;;;;;;;;;5088083;28;20053;-61
2022/04/03 10:19:44;;;;;;;4.05;1.80;;;;;;;;;;5089075;28;20502;-61
2022/04/03 10:22:25;;;;;;;5.70;1.60;;;;;;;;;;5090097;28;20155;-61
2022/04/03 10:24:54;;;;;;;4.68;1.40;;;;;;;;;;5090143;28;20143;-61
2022/04/03 10:27:26;;;;;;;4.30;1.30;;;;;;;;;;5089940;28;20176;-61
2022/04/03 10:29:55;;;;;;;5.05;1.00;;;;;;;;;;5076352;28;20507;-61
2022/04/03 10:32:23;;;;;;;1.33;0.60;;;;;;;;;;5069135;28;20590;-61
2022/04/03 10:34:50;;;;;;;2.15;1.00;;;;;;;;;;5069586;28;20144;-61
2022/04/03 10:37:24;;;;;;;2.65;1.00;;;;;;;;;;5069197;28;20135;-61
2022/04/03 10:39:56;;;;;;;3.25;0.90;;;;;;;;;;5069510;28;20111;-61
2022/04/03 10:42:27;;;;;;;4.40;1.00;;;;;;;;;;5069973;28;20144;-61
2022/04/03 10:45:11;;;;;;;4.60;1.10;;;;;;;;;;5068719;28;20057;-61
2022/04/03 10:47:41;;;;;;;3.22;0.60;;;;;;;;;;5069756;28;20143;-61
2022/04/03 10:50:09;;;;;;;2.90;1.15;;;;;;;;;;5068974;28;20457;-61
2022/04/03 10:52:35;;;;;;;1.40;0.50;;;;;;;;;;5069554;28;20087;-61
2022/04/03 10:55:10;;;;;;;1.38;0.82;;;;;;;;;;5069111;28;20144;-61
2022/04/03 10:57:43;;;;;;;0.93;0.60;;;;;;;;;;5069504;28;20049;-61
2022/04/03 11:00:11;;;;;;;1.33;0.70;;;;;;;;;;5067796;28;20061;-61
2022/04/03 11:02:38;;;;;;;3.70;0.60;;;;;;;;;;5069738;28;20056;-61
2022/04/03 11:05:22;;;;;;;1.45;0.85;;;;;;;;;;5068756;28;20049;-61
2022/04/03 11:08:02;;;;;;;3.55;0.93;;;;;;;;;;5068228;28;20049;-61
2022/04/03 11:10:52;;;;;;;3.92;0.88;;;;;;;;;;5068548;28;20168;-61
2022/04/03 11:13:21;;;;;;;2.17;0.75;;;;;;;;;;5068387;28;20491;-61
2022/04/03 11:15:54;;;;;;;1.48;0.80;;;;;;;;;;5082224;28;20065;-61
2022/04/03 11:18:32;;;;;;;1.83;0.80;;;;;;;;;;5087974;28;20056;-61
2022/04/03 11:20:59;;;;;;;;;;;;;;;;;;5087412;28;20053;-61
2022/04/03 11:23:26;;;;;;;2.35;0.85;;;;;;;;;;5087647;28;45763;-61
2022/04/03 11:25:53;;;;;;;2.80;1.10;;;;;;;;;;5088480;28;20072;-61
2022/04/03 11:28:20;;;;;;;3.10;1.00;;;;;;;;;;5088502;28;20136;-61
2022/04/03 11:30:46;;;;;;;2.58;1.00;;;;;;;;;;5088388;28;20136;-61
2022/04/03 11:33:12;;;;;;;2.97;1.10;;;;;;;;;;5087691;28;20055;-61
2022/04/03 11:35:42;;;;;;;1.35;0.80;;;;;;;;;;5088447;28;20144;-61
2022/04/03 11:38:09;;;;;;;1.23;0.73;;;;;;;;;;5086484;28;20083;-61
2022/04/03 11:40:36;;;;;;;2.92;0.80;;;;;;;;;;5086399;28;20541;-61
2022/04/03 11:43:07;;;;;;;6.35;1.10;;;;;;;;;;5087876;28;20064;-61
2022/04/03 11:45:33;;;;;;;2.28;0.90;;;;;;;;;;5080103;28;20500;-61
2022/04/03 11:48:12;;;;;;;4.68;1.10;;;;;;;;;;5067253;28;20136;-61
2022/04/03 11:50:38;;;;;;;4.32;1.40;;;;;;;;;;5067037;28;20055;-61
2022/04/03 11:53:10;;;;;;;3.88;1.30;;;;;;;;;;5067274;28;20060;-61
2022/04/03 11:55:37;;;;;;;4.43;1.35;;;;;;;;;;5067307;28;20053;-62
2022/04/03 11:58:04;;;;;;;3.28;1.63;;;;;;;;;;5066916;28;20501;-61
2022/04/03 12:00:30;;;;;;;4.18;1.40;;;;;;;;;;5066565;28;20057;-61
2022/04/03 12:03:00;;;;;;;2.85;1.40;;;;;;;;;;5066528;28;20140;-61
2022/04/03 12:05:26;;;;;;;3.75;1.30;;;;;;;;;;5067324;28;20123;-61
2022/04/03 12:07:53;;;;;;;4.15;1.40;;;;;;;;;;5067335;28;20433;-62
2022/04/03 12:10:26;;;;;;;4.22;1.45;;;;;;;;;;5066482;28;20179;-61
2022/04/03 12:12:56;;;;;;;4.20;1.90;;;;;;;;;;5067378;28;20073;-63
2022/04/03 12:15:22;;;;;;;3.53;1.50;;;;;;;;;;5073363;28;20463;-61
2022/04/03 12:17:54;;;;;;;3.38;1.30;;;;;;;;;;5087540;28;20533;-62
2022/04/03 12:20:20;;;;;;;5.10;1.40;;;;;;;;;;5087178;28;20143;-61
2022/04/03 12:22:50;;;;;;;4.80;1.58;;;;;;;;;;5086998;28;20130;-61
2022/04/03 12:25:17;;;;;;;3.53;1.48;;;;;;;;;;5087681;28;20048;-62
2022/04/03 12:27:43;;;;;;;3.25;1.50;;;;;;;;;;5085618;28;20047;-62
2022/04/03 12:30:10;;;;;;;2.92;1.33;;;;;;;;;;5086667;28;20152;-62
2022/04/03 12:32:39;;;;;;;1.73;1.10;;;;;;;;;;5087586;28;20061;-62
2022/04/03 12:35:09;;;;;;;2.80;1.10;;;;;;;;;;5086132;28;20063;-61
2022/04/03 12:37:42;;;;;;;2.78;1.20;;;;;;;;;;5087188;28;20120;-61
2022/04/03 12:40:11;;;;;;;4.07;1.48;;;;;;;;;;5087410;28;20056;-61
2022/04/03 12:42:41;;;;;;;4.78;1.90;;;;;;;;;;5086245;28;20063;-61
2022/04/03 12:45:18;;;;;;;5.43;1.63;;;;;;;;;;5079665;28;20147;-61
2022/04/03 12:47:58;;;;;;;3.42;1.30;;;;;;;;;;5065890;28;20473;-61
2022/04/03 12:50:30;;;;;;;3.97;1.15;;;;;;;;;;5065796;28;20100;-61
2022/04/03 12:53:02;;;;;;;3.28;1.20;;;;;;;;;;5066659;28;20473;-61
2022/04/03 12:55:33;;;;;;;1.27;0.68;;;;;;;;;;5066006;28;20140;-61
2022/04/03 13:00:51;;;;;;;1.63;0.68;;;;;;;;;;5066610;28;20184;-61
2022/04/03 13:03:24;;;;;;;4.32;0.77;;;;;;;;;;5071044;28;20052;-61
2022/04/03 13:05:53;;;;;;;0.55;0.50;;;;;;;;;;5075534;28;20510;-61
2022/04/03 13:08:19;;;;;;;3.33;0.77;;;;;;;;;;5086392;28;20058;-61
2022/04/03 13:10:55;;;;;;;2.63;0.77;;;;;;;;;;5086374;28;20147;-61
2022/04/03 13:13:22;;;;;;;3.00;0.90;;;;;;;;;;5089487;28;20082;-62
2022/04/03 13:15:49;;;;;;;3.35;0.98;;;;;;;;;;5090337;28;20056;-62
2022/04/03 13:18:15;;;;;;;3.45;1.08;;;;;;;;;;5089452;28;20210;-62
2022/04/03 13:20:51;;;;;;;2.22;1.23;;;;;;;;;;5070032;28;20140;-63
2022/04/03 13:23:18;;;;;;;1.50;0.95;;;;;;;;;;5069263;28;20051;-62
2022/04/03 13:25:45;;;;;;;4.47;1.20;;;;;;;;;;5070399;28;20427;-63
2022/04/03 13:28:12;;;;;;;4.07;1.35;;;;;;;;;;5069825;28;20079;-62
2022/04/03 13:30:39;;;;;;;1.88;1.05;;;;;;;;;;5069428;28;20090;-61
2022/04/03 13:33:05;;;;;;;2.78;1.13;;;;;;;;;;5069287;28;20140;-61
2022/04/03 13:35:32;;;;;;;4.95;1.52;;;;;;;;;;5072597;28;20055;-61
2022/04/03 13:37:58;;;;;;;8.23;1.92;;;;;;;;;;5089249;28;20053;-61
2022/04/03 13:40:24;;;;;;;5.95;2.35;;;;;;;;;;5090209;28;20063;-61
2022/04/03 13:42:51;;;;;;;5.78;1.70;;;;;;;;;;5088749;28;20084;-61
2022/04/03 13:45:17;;;;;;;5.35;1.67;;;;;;;;;;5085637;28;20152;-61
2022/04/03 13:47:49;;;;;;;4.95;1.60;;;;;;;;;;5069442;28;20079;-61
2022/04/03 13:50:15;;;;;;;5.22;1.70;;;;;;;;;;5068885;28;20052;-61
2022/04/03 13:52:41;;;;;;;3.38;1.52;;;;;;;;;;5070385;28;20053;-61
2022/04/03 13:55:08;;;;;;;4.40;1.98;;;;;;;;;;5069302;28;20155;-62
2022/04/03 13:57:34;;;;;;;2.80;1.30;;;;;;;;;;5069030;28;20148;-61
2022/04/03 14:00:00;;;;;;;4.30;1.13;;;;;;;;;;5069178;28;21418;-61
2022/04/03 14:02:27;;;;;;;8.90;1.20;;;;;;;;;;5069143;28;20053;-62
2022/04/03 14:04:53;;;;;;;2.42;1.25;;;;;;;;;;5068643;28;20886;-61
2022/04/03 14:07:20;;;;;;;5.05;1.50;;;;;;;;;;5068919;28;20441;-61
2022/04/03 14:09:46;;;;;;;2.05;1.30;;;;;;;;;;5069716;28;20510;-61
2022/04/03 14:12:12;;;;;;;3.47;1.00;;;;;;;;;;5068718;28;20485;-61
2022/04/03 14:14:41;;;;;;;2.80;1.38;;;;;;;;;;5067309;28;20517;-61
2022/04/03 14:17:07;;;;;;;2.17;1.10;;;;;;;;;;5068984;28;20161;-61
2022/04/03 14:19:33;;;;;;;3.72;1.40;;;;;;;;;;5089275;28;20052;-61
2022/04/03 14:22:00;;;;;;;4.68;1.10;;;;;;;;;;5089050;28;20075;-61
2022/04/03 14:24:26;;;;;;;4.00;1.15;;;;;;;;;;5088084;28;20136;-61
2022/04/03 14:26:52;;;;;;;6.22;1.38;;;;;;;;;;5088376;28;20078;-61
2022/04/03 14:29:19;;;;;;;2.00;0.73;;;;;;;;;;5088408;28;20140;-61
2022/04/03 14:31:45;;;;;;;2.10;0.90;;;;;;;;;;5088776;28;20076;-61
2022/04/03 14:34:11;;;;;;;3.40;0.98;;;;;;;;;;5089103;28;20063;-61
2022/04/03 14:36:38;;;;;;;2.90;1.00;;;;;;;;;;5088687;28;20075;-61
2022/04/03 14:39:04;;;;;;;2.28;0.93;;;;;;;;;;5088507;28;20151;-62
2022/04/03 14:41:34;;;;;;;2.22;1.10;;;;;;;;;;5088533;28;20079;-61
2022/04/03 14:44:02;;;;;;;1.90;0.90;;;;;;;;;;5087187;28;20148;-61